Broken Bow Municipal Airport

Current Flights

Departures
Number Departure To Airline
Arrivals
Number Arrival From Airline
Info
Name: Broken Bow Municipal Airport
Identifier:  BBW/KBBW
Local Time:  20. Jun 03:03
City
Flights per Day
1 flights
Distance: 199km (123mi)
Punctuality
77% (0 flights per day delayed)
Delay Average: 17 minutes
Current Weather
 18 C (Humidity: 93%)
  6kt (11km/h / 6mph) from 150°
  16km (10 mi.)
 In the Vicinity: Thunderstorm
 METAR KBBW 200731Z AUTO 15006KT 10SM VCTS CLR 18/17 A2967 RMK AO2 LTG DSNT NW T01830167

Current Delays

Departures
N/A
Arrivals
N/A

Destinations

Top Destinations
Airport Flights
per week
Seats
per week
  Hastings (HSI) 5 - 0 0
  Lincoln (LNK) 1 - 0 0
  Omaha (OMA) 1 - 0 0
  Omaha (MIQ) 0 - 0 0
  Grand Island (GRI) 0 - 0 0
  Council Bluffs (CBF) 0 - 0 0

Airlines & Planes

Top Airlines
Airline Flights
per Day
Seats
per Day
  Ameriflight 0 -
Silverhawk Aviation 0 -
  Flybe Nordic 0 -
Aerolink Uganda 0 -
Nordwind Airlines 0 -
Top Plane Types
Model Flights Seats
Beech C-99 Airliner 1.0/day - 0
Beech E90 King Air 0.3/day - 0
Cessna C172 0.0/day - 0